Home   Weather   Germany   Hannover   Past weeks
Flag for Germany

Past Weather in Hannover, Lower Saxony, Germany — Yesterday and Last 2 Weeks

Currently: 75 °F. Passing clouds. (Weather station: Hannover, Germany). See more current weather

Past Weather in Hannover — Graph

°F

Hannover Temperature Yesterday

Maximum temperature yesterday: 84 °F (at 4:20 pm)
Minimum temperature yesterday: 61 °F (at 11:20 pm)
Average temperature yesterday: 74 °F

High & Low Weather Summary for the Past Weeks

 TemperatureHumidityPressure
High88 °F (Jun 23, 4:50 pm)100% (Jun 20, 3:20 am)30.21 "Hg (Jun 20, 3:20 am)
Low46 °F (Jun 21, 3:50 am)21% (Jun 22, 5:20 pm)29.71 "Hg (Jun 24, 9:50 am)
Average68 °F62%29.96 "Hg
* Reported Jun 19 4:20 pm — Jul 4 4:50 pm, Hannover. Weather by CustomWeather, © 2022

Note: Actual official high and low records may vary slightly from our data, if they occured in-between our weather recording intervals... More about our weather records

Hannover Weather History for the Previous 24 Hours

Scroll right to see more
 ConditionsComfort  
Time TempWeatherWind HumidityBarometerVisibility
4:50 pm
Mon, Jul 4
77 °FPassing clouds.10 mph36%30.07 "HgN/A
4:20 pm75 °FPassing clouds.13 mph39%30.07 "HgN/A
3:20 pm75 °FPassing clouds.9 mph39%30.09 "HgN/A
2:50 pm73 °FPassing clouds.10 mph41%30.09 "HgN/A
2:20 pm72 °FPassing clouds.12 mph44%30.09 "HgN/A
1:50 pm72 °FPassing clouds.12 mph44%30.09 "HgN/A
1:20 pm73 °FPassing clouds.10 mph41%30.09 "HgN/A
12:50 pm72 °FPassing clouds.10 mph44%30.09 "HgN/A
12:20 pm72 °FPassing clouds.10 mph44%30.09 "HgN/A
11:50 am70 °FPassing clouds.8 mph50%30.12 "HgN/A
11:20 am70 °FScattered clouds.12 mph50%30.12 "HgN/A
10:50 am68 °FScattered clouds.9 mph53%30.12 "HgN/A
10:20 am66 °FScattered clouds.8 mph60%30.12 "HgN/A
9:50 am66 °FPassing clouds.9 mph64%30.12 "HgN/A
8:50 am64 °FPassing clouds.8 mph68%30.12 "HgN/A
8:20 am63 °FPassing clouds.6 mph73%30.09 "HgN/A
7:50 am61 °FPassing clouds.6 mph83%30.12 "HgN/A
7:20 am61 °FPassing clouds.6 mph88%30.12 "HgN/A
6:50 am57 °FPassing clouds.5 mph94%30.09 "HgN/A
6:20 am55 °FPassing clouds.3 mph94%30.09 "HgN/A
5:50 am54 °FPassing clouds.3 mph94%30.09 "HgN/A
5:20 am52 °FSunny.5 mph100%30.09 "Hg10 mi
4:50 am52 °FPassing clouds.3 mph100%30.07 "HgN/A
4:20 am54 °FClear.2 mph88%30.07 "Hg10 mi
3:50 am54 °FClear.2 mph94%30.07 "Hg10 mi
3:20 am54 °FClear.3 mph94%30.07 "Hg10 mi
2:50 am55 °FClear.1 mph88%30.07 "Hg10 mi
1:20 am57 °FClear.5 mph82%30.07 "Hg10 mi
12:50 am59 °FClear.3 mph82%30.07 "Hg10 mi
12:20 am61 °FClear.3 mph77%30.07 "Hg10 mi
11:50 pm
Sun, Jul 3
61 °FPassing clouds.3 mph83%30.07 "HgN/A
11:20 pm61 °FClear.5 mph83%30.07 "Hg10 mi
10:20 pm64 °FClear.10 mph78%30.07 "Hg10 mi
9:50 pm64 °FScattered showers. Passing clouds.12 mph78%30.04 "HgN/A
9:20 pm72 °FThundershowers. Passing clouds.16 mph53%30.01 "HgN/A
8:50 pm75 °FSunny.9 mph50%30.01 "Hg10 mi
8:20 pm75 °FSunny.12 mph47%29.98 "Hg10 mi
7:50 pm77 °FPassing clouds.13 mph47%30.01 "HgN/A
7:20 pm79 °FSunny.15 mph42%29.98 "Hg10 mi
6:50 pm81 °FPassing clouds.13 mph37%29.98 "HgN/A
6:20 pm81 °FPassing clouds.13 mph32%29.98 "HgN/A
Weather by CustomWeather, © 2022

See weather overview